Time;durP1;ratioP1;P1;durP2;ratioP2;P2;SDS_P1;SDS_P2;PMS_P1;PMS_P2;Temp;Humidity;BMP_temperature;BMP_pressure;BME280_temperature;BME280_humidity;BME280_pressure;Samples;Min_cycle;Max_cycle;Signal;HPM_P1;HPM_P2
2022/11/17 00:01:43;;;;;;;0.10;0.10;;;;;;;9.35;100.00;98876.50;5003836;28;20033;-74
2022/11/17 00:04:09;;;;;;;0.10;0.10;;;;;;;9.32;100.00;98886.69;5004084;28;20458;-74
2022/11/17 00:06:34;;;;;;;0.10;0.10;;;;;;;9.25;100.00;98876.59;5003958;28;20042;-75
2022/11/17 00:08:59;;;;;;;0.10;0.10;;;;;;;9.26;100.00;98859.53;4998336;28;20543;-73
2022/11/17 00:11:25;;;;;;;0.10;0.10;;;;;;;9.25;100.00;98860.53;5004313;28;20022;-75
2022/11/17 00:16:34;;;;;;;0.10;0.10;;;;;;;9.05;100.00;98840.38;5004597;28;20037;-73
2022/11/17 00:21:43;;;;;;;0.10;0.10;;;;;;;9.24;100.00;98815.19;5004989;28;20056;-75
2022/11/17 00:24:08;;;;;;;0.10;0.10;;;;;;;9.17;100.00;98806.13;5004767;28;20042;-74
2022/11/17 00:27:00;;;;;;;0.10;0.10;;;;;;;9.17;100.00;98806.94;5006526;28;20472;-73
2022/11/17 00:29:20;;;;;;;0.10;0.10;;;;;;;9.11;100.00;98805.75;5005453;28;20065;-78
2022/11/17 00:34:30;;;;;;;0.10;0.10;;;;;;;9.22;100.00;98774.34;5006112;28;20041;-74
2022/11/17 00:36:55;;;;;;;0.10;0.10;;;;;;;9.26;100.00;98767.69;5006728;28;20038;-73
2022/11/17 00:39:22;;;;;;;0.10;0.10;;;;;;;9.34;100.00;98785.59;5005499;28;20025;-73
2022/11/17 00:41:47;;;;;;;0.10;0.10;;;;;;;9.14;100.00;98743.84;4999562;28;20396;-74
2022/11/17 00:44:12;;;;;;;0.10;0.10;;;;;;;9.35;100.00;98766.69;5005749;28;20029;-74
2022/11/17 00:46:39;;;;;;;0.10;0.10;;;;;;;9.42;100.00;98761.50;5006695;28;20069;-75
2022/11/17 00:49:05;;;;;;;0.10;0.10;;;;;;;9.55;100.00;98767.25;5004546;28;20029;-75
2022/11/17 00:51:31;;;;;;;0.10;0.10;;;;;;;9.53;100.00;98747.81;5003584;28;20076;-75
2022/11/17 00:53:56;;;;;;;0.00;0.00;;;;;;;9.13;100.00;98719.94;4985313;28;20034;-74
2022/11/17 00:56:22;;;;;;;0.10;0.10;;;;;;;9.50;100.00;98737.44;4988133;28;20033;-76
2022/11/17 00:58:47;;;;;;;0.10;0.10;;;;;;;9.48;100.00;98719.84;5003490;28;20123;-76
2022/11/17 01:01:13;;;;;;;0.10;0.10;;;;;;;9.52;100.00;98726.56;5002746;28;20447;-75
2022/11/17 01:03:38;;;;;;;0.10;0.10;;;;;;;9.33;100.00;98709.75;4999749;28;20459;-73
2022/11/17 01:06:05;;;;;;;0.10;0.10;;;;;;;9.63;100.00;98698.63;5002906;28;20127;-74
2022/11/17 01:08:31;;;;;;;0.10;0.10;;;;;;;9.28;100.00;98669.25;5004133;28;20116;-76
2022/11/17 01:11:03;;;;;;;0.10;0.10;;;;;;;9.36;100.00;98693.38;5001549;28;20052;-74
2022/11/17 01:13:29;;;;;;;0.10;0.10;;;;;;;9.15;100.00;98677.75;4995907;28;20488;-74
2022/11/17 01:15:54;;;;;;;0.10;0.10;;;;;;;9.15;100.00;98688.47;5005155;28;20076;-76
2022/11/17 01:18:19;;;;;;;0.10;0.10;;;;;;;9.18;100.00;98649.84;5003260;28;20049;-75
2022/11/17 01:20:44;;;;;;;0.10;0.10;;;;;;;9.17;100.00;98667.72;5005383;28;20065;-75
2022/11/17 01:23:10;;;;;;;0.10;0.10;;;;;;;9.33;100.00;98676.81;5002075;28;20424;-77
2022/11/17 01:25:37;;;;;;;0.10;0.10;;;;;;;9.44;100.00;98676.47;5000498;28;20076;-75
2022/11/17 01:28:02;;;;;;;0.10;0.10;;;;;;;9.43;100.00;98662.25;5004520;28;20041;-76
2022/11/17 01:30:27;;;;;;;0.10;0.10;;;;;;;9.49;100.00;98668.78;5001874;28;20076;-77
2022/11/17 01:32:52;;;;;;;0.10;0.10;;;;;;;9.57;100.00;98654.56;4996490;28;20366;-74
2022/11/17 01:35:18;;;;;;;0.10;0.10;;;;;;;9.41;100.00;98663.41;4988151;28;20037;-74
2022/11/17 01:37:43;;;;;;;0.10;0.10;;;;;;;9.50;100.00;98675.00;4987134;28;20453;-75
2022/11/17 01:40:11;;;;;;;0.10;0.10;;;;;;;9.56;100.00;98683.19;5001384;28;20149;-73
2022/11/17 01:42:36;;;;;;;0.10;0.10;;;;;;;9.50;100.00;98646.34;5009473;28;20030;-75
2022/11/17 01:45:15;;;;;;;0.10;0.10;;;;;;;9.48;100.00;98655.56;5004316;28;20127;-75
2022/11/17 01:47:48;;;;;;;0.10;0.10;;;;;;;9.64;100.00;98649.38;5002426;28;20034;-74
2022/11/17 01:50:16;;;;;;;0.10;0.10;;;;;;;9.66;100.00;98663.44;5002967;28;20117;-76
2022/11/17 01:52:43;;;;;;;0.10;0.10;;;;;;;9.47;100.00;98624.44;5004786;28;20042;-75
2022/11/17 01:55:10;;;;;;;0.10;0.10;;;;;;;9.62;100.00;98646.03;5002139;28;20385;-75
2022/11/17 01:57:40;;;;;;;0.10;0.10;;;;;;;9.39;100.00;98644.84;5000064;28;20171;-74
2022/11/17 02:00:08;;;;;;;0.10;0.10;;;;;;;9.40;100.00;98632.31;4986039;28;20429;-75
2022/11/17 02:02:34;;;;;;;0.10;0.10;;;;;;;9.56;100.00;98618.03;4999589;28;20037;-76
2022/11/17 02:05:24;;;;;;;0.10;0.10;;;;;;;9.58;100.00;98643.69;4995762;28;20125;-74
2022/11/17 02:07:51;;;;;;;0.10;0.10;;;;;;;9.71;100.00;98612.84;5003222;28;20033;-75
2022/11/17 02:10:16;;;;;;;0.00;0.00;;;;;;;9.70;100.00;98605.81;4997585;28;20164;-72
2022/11/17 02:12:42;;;;;;;0.10;0.10;;;;;;;9.65;100.00;98609.00;5004193;28;20084;-75
2022/11/17 02:15:08;;;;;;;0.10;0.10;;;;;;;9.77;100.00;98620.22;5000552;28;20184;-74
2022/11/17 02:17:37;;;;;;;0.00;0.00;;;;;;;9.83;100.00;98608.84;5015034;23;20121;-74
2022/11/17 02:20:09;;;;;;;0.10;0.10;;;;;;;9.87;100.00;98607.50;4971055;28;20052;-74
2022/11/17 02:22:52;;;;;;;0.03;0.03;;;;;;;9.73;100.00;98590.25;4995884;28;20033;-76
2022/11/17 02:25:21;;;;;;;0.00;0.00;;;;;;;9.82;100.00;98608.97;5001479;28;20037;-73
2022/11/17 02:28:05;;;;;;;0.10;0.10;;;;;;;9.76;100.00;98618.53;5000706;28;20388;-73
2022/11/17 02:30:41;;;;;;;0.00;0.00;;;;;;;9.93;100.00;98600.59;4991288;28;20052;-75
2022/11/17 02:33:23;;;;;;;0.10;0.10;;;;;;;10.02;100.00;98604.09;4995943;28;20033;-74
2022/11/17 02:35:52;;;;;;;0.08;0.08;;;;;;;9.88;100.00;98592.22;4982202;28;20083;-73
2022/11/17 02:38:27;;;;;;;0.10;0.10;;;;;;;9.83;100.00;98582.03;4995852;28;20045;-74
2022/11/17 02:41:08;;;;;;;0.00;0.00;;;;;;;9.58;100.00;98562.47;4999440;28;20075;-76
2022/11/17 02:46:25;;;;;;;0.03;0.03;;;;;;;9.94;100.00;98563.91;4995336;28;20160;-75
2022/11/17 02:48:57;;;;;;;0.00;0.00;;;;;;;10.04;100.00;98576.13;4977000;28;20034;-75
2022/11/17 02:51:23;;;;;;;0.10;0.10;;;;;;;10.05;100.00;98585.84;4984381;28;20053;-75
2022/11/17 02:53:51;;;;;;;0.00;0.00;;;;;;;10.31;100.00;98586.59;5001257;28;20030;-75
2022/11/17 02:56:16;;;;;;;0.10;0.10;;;;;;;10.04;100.00;98562.72;4999340;28;20469;-74
2022/11/17 02:58:42;;;;;;;0.10;0.10;;;;;;;10.04;100.00;98577.97;4998338;28;22179;-72
2022/11/17 03:01:22;;;;;;;0.05;0.05;;;;;;;10.03;100.00;98577.13;5002394;28;20417;-72
2022/11/17 03:04:08;;;;;;;0.00;0.00;;;;;;;10.06;100.00;98584.81;5002462;28;20468;-74
2022/11/17 03:06:36;;;;;;;0.10;0.10;;;;;;;10.10;100.00;98592.50;4984630;28;20037;-75
2022/11/17 03:09:11;;;;;;;0.00;0.00;;;;;;;10.13;100.00;98573.41;5002800;28;20677;-74
2022/11/17 03:12:02;;;;;;;0.10;0.10;;;;;;;9.93;100.00;98556.91;5000549;28;20041;-73
2022/11/17 03:14:55;;;;;;;0.10;0.10;;;;;;;9.83;100.00;98559.75;4997625;28;20038;-73
2022/11/17 03:17:34;;;;;;;0.00;0.00;;;;;;;9.84;100.00;98558.72;5003307;28;20066;-75
2022/11/17 03:20:07;;;;;;;0.10;0.10;;;;;;;9.58;100.00;98525.81;4997450;28;20284;-72
2022/11/17 03:22:42;;;;;;;0.10;0.10;;;;;;;9.89;100.00;98511.66;5000367;28;20069;-75
2022/11/17 03:25:11;;;;;;;0.10;0.10;;;;;;;9.59;100.00;98476.56;4990657;28;20029;-75
2022/11/17 03:27:39;;;;;;;0.10;0.10;;;;;;;9.75;100.00;98499.81;5017821;28;20390;-75
2022/11/17 03:30:07;;;;;;;0.10;0.10;;;;;;;9.68;100.00;98504.19;5004770;28;20033;-74
2022/11/17 03:32:36;;;;;;;0.00;0.00;;;;;;;9.72;100.00;98507.34;5002851;28;20029;-75
2022/11/17 03:35:08;;;;;;;0.10;0.10;;;;;;;9.90;100.00;98505.31;5004135;28;20080;-73
2022/11/17 03:37:36;;;;;;;0.00;0.00;;;;;;;9.86;100.00;98477.16;5002907;28;20220;-74
2022/11/17 03:40:05;;;;;;;0.10;0.10;;;;;;;9.73;100.00;98507.19;4997624;28;20037;-75
2022/11/17 03:42:33;;;;;;;0.10;0.10;;;;;;;9.77;100.00;98488.91;5001229;28;20338;-73
2022/11/17 03:45:10;;;;;;;0.10;0.10;;;;;;;9.75;100.00;98470.34;5000839;28;21450;-73
2022/11/17 03:47:35;;;;;;;0.10;0.10;;;;;;;9.73;100.00;98482.22;5002249;28;20528;-74
2022/11/17 03:50:09;;;;;;;0.10;0.10;;;;;;;9.83;100.00;98465.94;5003706;28;20023;-74
2022/11/17 03:52:36;;;;;;;0.00;0.00;;;;;;;9.76;100.00;98479.19;5001138;28;20043;-74
2022/11/17 03:55:02;;;;;;;0.10;0.10;;;;;;;9.74;100.00;98454.41;5003012;28;20038;-74
2022/11/17 03:57:30;;;;;;;0.00;0.00;;;;;;;9.73;100.00;98492.94;5001036;28;20056;-73
2022/11/17 04:00:05;;;;;;;0.10;0.10;;;;;;;9.75;100.00;98475.69;4998404;28;20392;-73
2022/11/17 04:02:30;;;;;;;0.10;0.10;;;;;;;9.89;100.00;98471.47;4999650;28;20030;-72
2022/11/17 04:05:05;;;;;;;0.10;0.10;;;;;;;9.95;100.00;98477.97;5005323;28;20034;-72
2022/11/17 04:07:34;;;;;;;;;;;;;;;9.76;100.00;98463.13;5000316;28;20030;-73
2022/11/17 04:09:59;;;;;;;0.10;0.10;;;;;;;9.41;100.00;98443.78;4998868;28;20088;-72
2022/11/17 04:17:54;;;;;;;0.10;0.10;;;;;;;9.47;100.00;98435.06;5004913;28;20475;-72
2022/11/17 04:20:19;;;;;;;0.10;0.10;;;;;;;9.69;100.00;98475.53;4986339;28;20025;-73
2022/11/17 04:22:44;;;;;;;0.10;0.10;;;;;;;9.79;100.00;98452.06;5006129;28;20149;-74
2022/11/17 04:28:35;;;;;;;0.10;0.10;;;;;;;9.66;100.00;98436.53;5003294;28;20030;-73
2022/11/17 04:30:39;;;;;;;0.10;0.10;;;;;;;9.87;100.00;98467.28;5000288;28;20076;-71
2022/11/17 04:33:04;;;;;;;0.10;0.10;;;;;;;9.85;100.00;98416.53;4998443;28;20133;-73
2022/11/17 04:35:29;;;;;;;0.05;0.05;;;;;;;10.02;100.00;98446.78;5003783;28;20263;-73
2022/11/17 04:37:55;;;;;;;0.10;0.10;;;;;;;9.82;100.00;98432.97;5006488;28;20032;-72
2022/11/17 04:40:20;;;;;;;0.10;0.10;;;;;;;9.69;100.00;98411.22;5004719;28;20025;-72
2022/11/17 04:42:45;;;;;;;0.10;0.10;;;;;;;9.87;100.00;98411.84;5003139;28;20451;-73
2022/11/17 04:45:11;;;;;;;0.10;0.10;;;;;;;9.97;100.00;98408.09;4999961;28;20392;-75
2022/11/17 04:47:36;;;;;;;0.10;0.10;;;;;;;9.84;100.00;98417.53;5004568;28;20060;-75
2022/11/17 04:50:01;;;;;;;0.10;0.10;;;;;;;9.97;100.00;98426.84;5001269;28;20033;-73
2022/11/17 04:52:26;;;;;;;0.10;0.10;;;;;;;10.18;100.00;98428.94;5006580;28;20125;-74
2022/11/17 04:54:52;;;;;;;0.10;0.10;;;;;;;9.85;100.00;98403.13;5001862;28;20037;-72
2022/11/17 04:57:17;;;;;;;0.10;0.10;;;;;;;9.82;100.00;98408.84;5004661;28;20398;-75
2022/11/17 04:59:42;;;;;;;0.10;0.10;;;;;;;9.99;100.00;98422.16;4996489;28;20117;-74
2022/11/17 05:02:08;;;;;;;0.10;0.10;;;;;;;9.88;100.00;98416.19;5009011;28;20037;-75
2022/11/17 05:07:17;;;;;;;0.10;0.10;;;;;;;9.75;100.00;98431.97;5007172;28;20083;-73
2022/11/17 05:09:42;;;;;;;0.10;0.10;;;;;;;9.85;100.00;98427.25;5003915;28;20041;-72
2022/11/17 05:14:52;;;;;;;0.10;0.10;;;;;;;9.68;100.00;98414.91;5002086;28;20519;-72
2022/11/17 05:17:17;;;;;;;0.10;0.10;;;;;;;9.58;100.00;98415.97;5005386;28;20491;-76
2022/11/17 05:19:46;;;;;;;0.10;0.10;;;;;;;9.66;100.00;98415.09;4999801;28;20033;-75
2022/11/17 05:25:06;;;;;;;0.10;0.10;;;;;;;9.46;100.00;98406.63;4995150;28;20048;-75
2022/11/17 05:27:35;;;;;;;0.00;0.00;;;;;;;9.49;100.00;98400.09;4989006;28;20037;-76
2022/11/17 05:30:02;;;;;;;0.10;0.10;;;;;;;9.56;100.00;98404.59;5002793;28;20092;-77
2022/11/17 05:32:27;;;;;;;0.10;0.10;;;;;;;9.50;100.00;98380.34;4986230;28;20025;-77
2022/11/17 05:34:52;;;;;;;0.10;0.10;;;;;;;9.49;100.00;98392.06;4999305;28;20038;-76
2022/11/17 05:37:17;;;;;;;0.10;0.10;;;;;;;9.59;100.00;98412.28;4986523;28;20038;-76
2022/11/17 05:39:43;;;;;;;0.10;0.10;;;;;;;9.42;100.00;98386.53;5001245;28;20066;-77
2022/11/17 05:42:08;;;;;;;0.10;0.10;;;;;;;9.57;100.00;98384.81;4999613;28;20053;-76
2022/11/17 05:44:33;;;;;;;0.10;0.10;;;;;;;9.64;100.00;98381.47;4999698;28;20052;-75
2022/11/17 05:46:59;;;;;;;0.10;0.10;;;;;;;9.70;100.00;98395.00;5005055;28;20017;-75
2022/11/17 05:49:24;;;;;;;0.10;0.10;;;;;;;9.80;100.00;98402.00;5000948;28;20137;-73
2022/11/17 05:51:49;;;;;;;0.10;0.10;;;;;;;9.85;100.00;98408.50;5002435;28;20110;-75
2022/11/17 05:54:15;;;;;;;0.10;0.10;;;;;;;9.72;100.00;98417.09;4993332;28;20605;-74
2022/11/17 05:56:44;;;;;;;0.10;0.10;;;;;;;9.68;100.00;98409.56;5004527;28;20125;-76
2022/11/17 05:59:16;;;;;;;0.10;0.10;;;;;;;9.34;100.00;98421.41;5004580;28;20402;-74
2022/11/17 06:01:47;;;;;;;0.10;0.10;;;;;;;9.64;100.00;98443.09;5000955;28;20038;-76
2022/11/17 06:04:16;;;;;;;0.10;0.10;;;;;;;9.87;100.00;98410.97;5001376;28;20029;-73
2022/11/17 06:06:42;;;;;;;0.10;0.10;;;;;;;9.61;100.00;98401.38;5001503;28;20056;-73
2022/11/17 06:09:07;;;;;;;0.10;0.10;;;;;;;9.64;100.00;98421.66;5005294;28;20034;-74
2022/11/17 06:11:33;;;;;;;0.10;0.10;;;;;;;9.74;100.00;98438.34;5000604;28;20033;-75
2022/11/17 06:13:58;;;;;;;0.10;0.10;;;;;;;9.62;100.00;98408.41;4985204;28;20045;-76
2022/11/17 06:19:14;;;;;;;0.10;0.10;;;;;;;9.74;100.00;98447.22;5061255;28;20359;-76
2022/11/17 06:21:40;;;;;;;0.10;0.10;;;;;;;9.72;100.00;98432.31;5016570;28;20039;-73
2022/11/17 06:24:06;;;;;;;0.10;0.10;;;;;;;9.80;100.00;98424.25;5046155;28;20033;-75
2022/11/17 06:26:32;;;;;;;0.10;0.10;;;;;;;9.62;100.00;98437.88;5041218;28;20415;-73
2022/11/17 06:28:57;;;;;;;0.10;0.10;;;;;;;9.66;100.00;98441.06;5044391;28;20029;-73
2022/11/17 06:31:25;;;;;;;0.10;0.10;;;;;;;9.63;100.00;98444.91;5042599;28;20044;-73
2022/11/17 06:33:50;;;;;;;0.10;0.10;;;;;;;9.61;100.00;98441.56;5003764;28;20033;-74
2022/11/17 06:36:16;;;;;;;0.10;0.10;;;;;;;9.68;100.00;98449.75;5057042;28;20022;-74
2022/11/17 06:38:41;;;;;;;0.10;0.10;;;;;;;9.66;100.00;98455.28;5046241;28;20075;-74
2022/11/17 06:41:06;;;;;;;0.10;0.10;;;;;;;9.68;100.00;98449.75;5035179;28;20080;-75
2022/11/17 06:43:32;;;;;;;0.10;0.10;;;;;;;9.65;100.00;98453.63;5057770;28;20071;-74
2022/11/17 06:46:02;;;;;;;0.10;0.10;;;;;;;9.71;100.00;98442.22;5042688;28;20033;-73
2022/11/17 06:48:27;;;;;;;0.10;0.10;;;;;;;9.60;100.00;98451.47;5058480;28;20063;-77
2022/11/17 06:50:53;;;;;;;0.10;0.10;;;;;;;9.57;100.00;98435.72;5022686;28;20025;-75
2022/11/17 06:53:21;;;;;;;0.10;0.10;;;;;;;9.73;100.00;98472.34;5059527;28;20021;-73
2022/11/17 06:55:57;;;;;;;0.15;0.15;;;;;;;9.48;100.00;98476.94;5055505;28;20033;-72
2022/11/17 06:58:23;;;;;;;0.10;0.10;;;;;;;9.48;100.00;98474.25;5022886;28;20032;-73
2022/11/17 07:00:48;;;;;;;0.10;0.10;;;;;;;9.57;100.00;98475.91;5034471;28;20029;-73
2022/11/17 07:03:13;;;;;;;0.10;0.10;;;;;;;9.44;100.00;98481.81;5022452;28;20444;-72
2022/11/17 07:05:39;;;;;;;0.10;0.10;;;;;;;9.41;100.00;98481.28;5021913;28;20231;-72
2022/11/17 07:08:06;;;;;;;0.10;0.10;;;;;;;9.46;100.00;98495.00;5041079;28;20124;-73
2022/11/17 07:10:32;;;;;;;0.13;0.13;;;;;;;9.42;100.00;98493.66;5019158;28;20029;-73
2022/11/17 07:12:58;;;;;;;0.10;0.10;;;;;;;9.54;100.00;98494.16;5023563;28;20550;-75
2022/11/17 07:15:23;;;;;;;0.03;0.03;;;;;;;9.32;100.00;98490.34;5052895;28;20041;-74
2022/11/17 07:17:49;;;;;;;0.10;0.10;;;;;;;9.59;100.00;98489.97;5044642;28;20464;-73
2022/11/17 07:20:15;;;;;;;0.10;0.10;;;;;;;9.56;100.00;98498.34;5020624;28;20519;-74
2022/11/17 07:22:41;;;;;;;0.10;0.10;;;;;;;9.44;100.00;98492.50;5040889;28;20037;-73
2022/11/17 07:25:06;;;;;;;0.05;0.05;;;;;;;9.28;100.00;98489.84;5057548;28;20040;-73
2022/11/17 07:27:31;;;;;;;0.10;0.10;;;;;;;9.45;100.00;98494.19;5021753;28;20055;-74
2022/11/17 07:29:57;;;;;;;0.05;0.05;;;;;;;9.69;100.00;98507.69;5024127;28;20076;-74
2022/11/17 07:32:22;;;;;;;0.10;0.10;;;;;;;9.47;100.00;98494.00;5022358;28;20091;-73
2022/11/17 07:34:48;;;;;;;0.10;0.10;;;;;;;9.33;100.00;98487.50;4995394;28;20033;-74
2022/11/17 07:37:14;;;;;;;0.10;0.10;;;;;;;9.40;100.00;98523.31;4999828;28;20388;-72
2022/11/17 07:39:39;;;;;;;0.10;0.10;;;;;;;9.87;100.00;98520.88;5008033;28;20526;-72
2022/11/17 07:42:05;;;;;;;0.10;0.10;;;;;;;9.47;100.00;98518.09;5027176;28;20064;-74
2022/11/17 07:44:30;;;;;;;0.10;0.10;;;;;;;9.34;100.00;98536.56;5026174;28;20029;-74
2022/11/17 07:46:55;;;;;;;0.10;0.10;;;;;;;9.49;100.00;98518.78;4994025;28;20025;-73
2022/11/17 07:49:21;;;;;;;0.10;0.10;;;;;;;9.28;100.00;98522.81;5042696;28;20440;-72
2022/11/17 07:51:46;;;;;;;0.10;0.10;;;;;;;9.18;100.00;98542.75;5035136;28;20465;-73
2022/11/17 07:54:11;;;;;;;0.10;0.10;;;;;;;9.06;100.00;98521.63;5008769;28;20065;-74
2022/11/17 07:56:37;;;;;;;0.10;0.10;;;;;;;9.08;100.00;98533.03;4991742;28;20407;-73
2022/11/17 07:59:02;;;;;;;0.10;0.10;;;;;;;9.27;100.00;98517.66;5003851;28;20042;-75
2022/11/17 08:01:28;;;;;;;0.10;0.10;;;;;;;9.05;100.00;98576.19;5026606;28;20033;-75
2022/11/17 08:03:53;;;;;;;0.10;0.10;;;;;;;9.04;100.00;98547.72;5003255;28;20128;-72
2022/11/17 08:06:19;;;;;;;0.10;0.10;;;;;;;9.13;100.00;98578.06;5020358;28;20391;-74
2022/11/17 08:08:44;;;;;;;0.10;0.10;;;;;;;9.24;100.00;98558.97;5002748;28;20357;-70
2022/11/17 08:11:11;;;;;;;0.03;0.03;;;;;;;9.11;100.00;98577.38;5033795;28;20021;-71
2022/11/17 08:13:38;;;;;;;0.10;0.10;;;;;;;9.01;100.00;98574.81;4984125;28;20575;-72
2022/11/17 08:16:04;;;;;;;0.10;0.10;;;;;;;8.97;100.00;98554.78;5036730;28;20033;-72
2022/11/17 08:18:30;;;;;;;0.10;0.10;;;;;;;8.99;100.00;98566.97;4989499;28;20025;-72
2022/11/17 08:21:08;;;;;;;0.10;0.10;;;;;;;9.15;100.00;98592.09;5004499;28;20055;-72
2022/11/17 08:23:34;;;;;;;0.17;0.17;;;;;;;9.11;100.00;98582.72;5022098;28;20037;-72
2022/11/17 08:26:00;;;;;;;0.10;0.10;;;;;;;9.07;100.00;98579.53;5022912;28;20091;-72
2022/11/17 08:28:26;;;;;;;0.10;0.10;;;;;;;8.96;100.00;98579.88;4991077;28;20467;-71
2022/11/17 08:30:51;;;;;;;0.10;0.10;;;;;;;8.91;100.00;98577.66;5033824;28;20061;-71
2022/11/17 08:33:16;;;;;;;0.10;0.10;;;;;;;8.90;100.00;98575.97;5019358;28;20586;-71
2022/11/17 08:35:42;;;;;;;0.10;0.10;;;;;;;9.02;100.00;98581.84;5014954;28;20120;-71
2022/11/17 08:38:10;;;;;;;0.10;0.10;;;;;;;9.17;100.00;98568.66;5031929;28;20374;-73
2022/11/17 08:40:36;;;;;;;0.10;0.10;;;;;;;9.01;100.00;98582.84;5035058;28;20034;-71
2022/11/17 08:43:01;;;;;;;0.10;0.10;;;;;;;8.95;100.00;98592.38;5034906;28;20036;-73
2022/11/17 08:45:26;;;;;;;0.10;0.10;;;;;;;9.06;100.00;98612.66;5024401;28;20037;-75
2022/11/17 08:47:52;;;;;;;0.10;0.10;;;;;;;8.98;100.00;98588.56;5003031;28;20104;-73
2022/11/17 08:50:19;;;;;;;0.10;0.10;;;;;;;9.23;100.00;98576.03;5005620;28;20144;-73
2022/11/17 08:52:44;;;;;;;0.10;0.10;;;;;;;9.18;100.00;98596.28;5011507;28;20555;-74
2022/11/17 08:55:10;;;;;;;0.10;0.10;;;;;;;8.98;100.00;98576.00;5022000;28;20034;-73
2022/11/17 08:57:36;;;;;;;0.10;0.10;;;;;;;8.97;100.00;98594.91;5005981;28;20041;-74
2022/11/17 09:00:01;;;;;;;0.10;0.10;;;;;;;9.04;100.00;98592.41;5019551;28;20040;-73
2022/11/17 09:02:27;;;;;;;0.10;0.10;;;;;;;9.00;100.00;98616.84;5017425;28;20033;-73
2022/11/17 09:04:52;;;;;;;0.10;0.10;;;;;;;8.97;100.00;98587.72;5019599;28;20655;-74
2022/11/17 09:07:18;;;;;;;0.10;0.10;;;;;;;8.93;100.00;98589.03;5013883;28;20034;-73
2022/11/17 09:09:45;;;;;;;0.10;0.10;;;;;;;9.00;100.00;98614.16;5019374;28;20488;-72
2022/11/17 09:12:10;;;;;;;0.20;0.20;;;;;;;9.18;100.00;98615.84;5025996;28;20507;-72
2022/11/17 09:14:35;;;;;;;0.10;0.10;;;;;;;9.19;100.00;98604.13;5022055;28;20029;-77
2022/11/17 09:17:01;;;;;;;0.10;0.10;;;;;;;9.02;100.00;98603.28;5023303;28;20033;-71
2022/11/17 09:19:26;;;;;;;0.10;0.10;;;;;;;8.84;100.00;98622.16;5024615;28;20036;-73
2022/11/17 09:21:51;;;;;;;0.10;0.10;;;;;;;8.79;100.00;98619.94;5017250;28;20032;-75
2022/11/17 09:24:16;;;;;;;0.10;0.10;;;;;;;8.58;100.00;98609.69;5021068;28;20056;-75
2022/11/17 09:26:42;;;;;;;0.03;0.03;;;;;;;8.60;100.00;98628.25;5021808;28;20072;-72
2022/11/17 09:29:07;;;;;;;0.10;0.10;;;;;;;8.58;100.00;98608.84;5020353;28;20486;-75
2022/11/17 09:31:34;;;;;;;0.10;0.10;;;;;;;8.67;100.00;98619.41;5021935;28;20468;-73
2022/11/17 09:33:59;;;;;;;0.10;0.10;;;;;;;8.61;100.00;98619.22;5019443;28;20029;-73
2022/11/17 09:36:25;;;;;;;0.10;0.10;;;;;;;8.95;100.00;98650.44;5026437;28;20029;-71
2022/11/17 09:38:50;;;;;;;0.10;0.10;;;;;;;8.65;100.00;98640.13;5019835;28;20103;-73
2022/11/17 09:41:25;;;;;;;0.10;0.10;;;;;;;8.76;100.00;98632.81;5021401;28;20075;-75
2022/11/17 09:44:18;;;;;;;0.10;0.10;;;;;;;8.94;100.00;98644.25;5017605;28;20029;-75
2022/11/17 09:46:43;;;;;;;0.10;0.10;;;;;;;8.89;100.00;98665.28;5038111;28;20033;-73
2022/11/17 09:49:20;;;;;;;0.10;0.10;;;;;;;9.02;100.00;98666.69;5022079;28;20030;-75
2022/11/17 09:51:47;;;;;;;0.10;0.10;;;;;;;8.84;100.00;98695.22;5007374;28;20286;-76
2022/11/17 09:54:40;;;;;;;0.10;0.10;;;;;;;8.81;100.00;98681.34;5023540;28;20033;-76
2022/11/17 09:57:29;;;;;;;0.03;0.03;;;;;;;8.89;100.00;98683.22;5024413;28;20376;-74
2022/11/17 10:00:13;;;;;;;0.10;0.10;;;;;;;8.78;100.00;98670.97;4987514;28;20050;-74
2022/11/17 10:02:40;;;;;;;0.10;0.10;;;;;;;8.99;100.00;98678.56;5002863;28;20042;-73
2022/11/17 10:05:08;;;;;;;0.10;0.10;;;;;;;8.81;100.00;98671.47;5017879;28;20037;-74
2022/11/17 10:07:33;;;;;;;0.10;0.10;;;;;;;8.89;100.00;98686.72;5018477;28;20480;-75
2022/11/17 10:10:00;;;;;;;0.10;0.10;;;;;;;9.07;100.00;98675.91;5015066;28;20033;-73
2022/11/17 10:12:32;;;;;;;0.10;0.10;;;;;;;9.08;100.00;98680.25;5015047;28;20033;-75
2022/11/17 10:15:17;;;;;;;0.10;0.10;;;;;;;9.15;100.00;98683.97;5014441;28;20061;-75
2022/11/17 10:17:42;;;;;;;0.10;0.10;;;;;;;9.38;100.00;98690.53;5017683;28;20033;-73
2022/11/17 10:20:17;;;;;;;0.10;0.10;;;;;;;9.56;100.00;98693.06;5013517;28;20223;-72
2022/11/17 10:22:44;;;;;;;0.10;0.10;;;;;;;9.72;100.00;98671.66;5015740;28;20040;-74
2022/11/17 10:25:35;;;;;;;0.10;0.10;;;;;;;9.74;100.00;98696.44;5017222;28;20030;-74
2022/11/17 10:28:00;;;;;;;0.10;0.10;;;;;;;9.78;100.00;98694.25;5003960;28;20100;-74
2022/11/17 10:30:26;;;;;;;0.10;0.10;;;;;;;9.72;100.00;98671.66;5019619;28;20395;-73
2022/11/17 10:32:56;;;;;;;0.10;0.10;;;;;;;9.83;100.00;98670.47;5018261;28;20094;-74
2022/11/17 10:35:30;;;;;;;0.10;0.10;;;;;;;9.78;100.00;98677.34;5021572;28;20036;-74
2022/11/17 10:38:05;;;;;;;0.10;0.10;;;;;;;10.05;100.00;98686.88;5007167;28;20038;-74
2022/11/17 10:40:44;;;;;;;0.10;0.10;;;;;;;10.02;100.00;98728.28;5018967;28;20071;-73
2022/11/17 10:43:12;;;;;;;0.10;0.10;;;;;;;10.13;100.00;98710.16;5023011;28;20033;-74
2022/11/17 10:45:44;;;;;;;0.10;0.10;;;;;;;10.18;100.00;98710.50;5032313;28;20056;-75
2022/11/17 10:48:19;;;;;;;0.10;0.10;;;;;;;10.02;100.00;98688.06;5019924;28;20022;-75
2022/11/17 10:50:55;;;;;;;0.10;0.10;;;;;;;10.25;100.00;98695.41;5021266;28;20041;-71
2022/11/17 10:53:24;;;;;;;0.10;0.10;;;;;;;10.13;100.00;98689.56;5007201;28;20037;-74
2022/11/17 10:55:59;;;;;;;0.10;0.10;;;;;;;10.02;100.00;98704.16;5019608;28;20038;-73
2022/11/17 10:58:27;;;;;;;0.10;0.10;;;;;;;10.03;100.00;98681.69;5015351;28;20116;-73
2022/11/17 11:00:55;;;;;;;0.10;0.10;;;;;;;10.30;100.00;98709.16;5002270;28;20083;-76
2022/11/17 11:03:32;;;;;;;0.10;0.10;;;;;;;10.24;100.00;98717.00;5004500;28;20034;-74
2022/11/17 11:06:04;;;;;;;0.10;0.10;;;;;;;10.15;100.00;98705.47;5027368;28;20029;-74
2022/11/17 11:08:40;;;;;;;0.10;0.10;;;;;;;10.31;100.00;98710.81;5025169;28;20103;-74
2022/11/17 11:11:11;;;;;;;0.10;0.10;;;;;;;10.13;100.00;98726.25;5006827;28;20442;-72
2022/11/17 11:13:46;;;;;;;0.10;0.10;;;;;;;10.19;100.00;98731.78;5020096;28;20431;-74
2022/11/17 11:16:11;;;;;;;0.00;0.00;;;;;;;10.32;100.00;98733.09;5010137;28;20372;-75
2022/11/17 11:18:37;;;;;;;0.10;0.10;;;;;;;10.10;100.00;98737.31;5022512;28;20028;-74
2022/11/17 11:21:35;;;;;;;0.10;0.10;;;;;;;10.14;100.00;98730.59;5023653;28;20033;-75
2022/11/17 11:24:07;;;;;;;0.10;0.10;;;;;;;9.83;100.00;98744.66;5023032;28;20681;-73
2022/11/17 11:26:36;;;;;;;0.10;0.10;;;;;;;10.10;100.00;98734.63;5022090;28;20120;-72
2022/11/17 11:29:17;;;;;;;0.10;0.10;;;;;;;9.90;100.00;98737.66;5023669;28;20152;-74
2022/11/17 11:31:55;;;;;;;0.10;0.10;;;;;;;10.00;100.00;98746.38;5029104;28;20033;-74
2022/11/17 11:34:37;;;;;;;0.10;0.10;;;;;;;9.97;100.00;98768.16;5022959;28;20029;-73
2022/11/17 11:37:07;;;;;;;0.00;0.00;;;;;;;9.81;100.00;98742.16;5019540;28;20087;-73
2022/11/17 11:40:10;;;;;;;0.10;0.10;;;;;;;10.13;100.00;98736.97;5018955;28;20033;-76
2022/11/17 11:42:57;;;;;;;0.10;0.10;;;;;;;9.89;100.00;98754.72;5032008;28;20120;-72
2022/11/17 11:45:34;;;;;;;0.08;0.08;;;;;;;10.02;100.00;98763.13;5020266;28;20076;-74
2022/11/17 11:48:32;;;;;;;0.10;0.10;;;;;;;10.11;100.00;98772.00;5022989;28;20025;-73
2022/11/17 11:51:01;;;;;;;0.10;0.10;;;;;;;10.28;100.00;98777.34;5023865;28;20147;-72
2022/11/17 11:53:56;;;;;;;0.10;0.10;;;;;;;10.26;100.00;98771.31;5031381;28;20037;-75
2022/11/17 11:56:35;;;;;;;0.10;0.10;;;;;;;10.26;100.00;98772.19;5028593;28;20025;-76
2022/11/17 11:59:08;;;;;;;0.10;0.10;;;;;;;10.20;100.00;98751.38;5020870;28;20021;-74
2022/11/17 12:01:41;;;;;;;0.10;0.10;;;;;;;10.32;100.00;98763.47;5019241;28;20053;-72
2022/11/17 12:04:18;;;;;;;0.10;0.10;;;;;;;10.26;100.00;98761.44;5024052;28;20380;-75
2022/11/17 12:07:09;;;;;;;0.10;0.10;;;;;;;10.28;100.00;98766.63;5020410;28;20060;-73
2022/11/17 12:09:52;;;;;;;0.10;0.10;;;;;;;10.02;100.00;98746.19;5014817;28;20162;-72
2022/11/17 12:12:28;;;;;;;0.00;0.00;;;;;;;10.26;100.00;98782.06;5027713;28;20029;-74